sensor_id;sensor_type;location;lat;lon;timestamp;P1;durP1;ratioP1;P2;durP2;ratioP2
23573;SDS011;11965;53.640;10.050;2023-12-14T00:01:11;3.18;;;3.18;;
23573;SDS011;11965;53.640;10.050;2023-12-14T00:03:40;3.09;;;3.07;;
23573;SDS011;11965;53.640;10.050;2023-12-14T00:06:09;2.96;;;2.94;;
23573;SDS011;11965;53.640;10.050;2023-12-14T00:08:36;2.99;;;2.99;;
23573;SDS011;11965;53.640;10.050;2023-12-14T00:11:07;3.19;;;3.18;;
23573;SDS011;11965;53.640;10.050;2023-12-14T00:13:35;3.01;;;3.01;;
23573;SDS011;11965;53.640;10.050;2023-12-14T00:16:03;2.96;;;2.96;;
23573;SDS011;11965;53.640;10.050;2023-12-14T00:18:31;2.78;;;2.77;;
23573;SDS011;11965;53.640;10.050;2023-12-14T00:20:59;2.87;;;2.87;;
23573;SDS011;11965;53.640;10.050;2023-12-14T00:23:26;2.95;;;2.93;;
23573;SDS011;11965;53.640;10.050;2023-12-14T00:25:53;2.61;;;2.59;;
23573;SDS011;11965;53.640;10.050;2023-12-14T00:28:21;2.76;;;2.74;;
23573;SDS011;11965;53.640;10.050;2023-12-14T00:30:48;2.61;;;2.59;;
23573;SDS011;11965;53.640;10.050;2023-12-14T00:33:15;2.17;;;2.15;;
23573;SDS011;11965;53.640;10.050;2023-12-14T00:35:42;2.55;;;2.54;;
23573;SDS011;11965;53.640;10.050;2023-12-14T00:38:10;2.33;;;2.33;;
23573;SDS011;11965;53.640;10.050;2023-12-14T00:40:37;2.31;;;2.30;;
23573;SDS011;11965;53.640;10.050;2023-12-14T00:43:04;2.42;;;2.40;;
23573;SDS011;11965;53.640;10.050;2023-12-14T00:45:31;2.40;;;2.38;;
23573;SDS011;11965;53.640;10.050;2023-12-14T00:47:58;2.51;;;2.49;;
23573;SDS011;11965;53.640;10.050;2023-12-14T00:50:25;2.35;;;2.32;;
23573;SDS011;11965;53.640;10.050;2023-12-14T00:52:52;2.28;;;2.26;;
23573;SDS011;11965;53.640;10.050;2023-12-14T00:55:20;2.34;;;2.32;;
23573;SDS011;11965;53.640;10.050;2023-12-14T00:57:47;2.37;;;2.36;;
23573;SDS011;11965;53.640;10.050;2023-12-14T01:00:14;2.11;;;2.10;;
23573;SDS011;11965;53.640;10.050;2023-12-14T01:02:41;2.12;;;2.11;;
23573;SDS011;11965;53.640;10.050;2023-12-14T01:05:08;2.13;;;2.13;;
23573;SDS011;11965;53.640;10.050;2023-12-14T01:07:35;2.10;;;2.10;;
23573;SDS011;11965;53.640;10.050;2023-12-14T01:10:02;2.55;;;2.55;;
23573;SDS011;11965;53.640;10.050;2023-12-14T01:12:31;2.06;;;2.06;;
23573;SDS011;11965;53.640;10.050;2023-12-14T01:14:58;2.13;;;2.13;;
23573;SDS011;11965;53.640;10.050;2023-12-14T01:17:25;2.20;;;2.18;;
23573;SDS011;11965;53.640;10.050;2023-12-14T01:19:53;1.97;;;1.95;;
23573;SDS011;11965;53.640;10.050;2023-12-14T01:22:20;2.37;;;2.33;;
23573;SDS011;11965;53.640;10.050;2023-12-14T01:24:46;2.24;;;2.17;;
23573;SDS011;11965;53.640;10.050;2023-12-14T01:27:13;2.02;;;1.98;;
23573;SDS011;11965;53.640;10.050;2023-12-14T01:29:41;2.22;;;2.18;;
23573;SDS011;11965;53.640;10.050;2023-12-14T01:32:08;2.14;;;2.11;;
23573;SDS011;11965;53.640;10.050;2023-12-14T01:34:35;2.39;;;2.35;;
23573;SDS011;11965;53.640;10.050;2023-12-14T01:37:02;2.26;;;2.24;;
23573;SDS011;11965;53.640;10.050;2023-12-14T01:39:30;2.22;;;2.21;;
23573;SDS011;11965;53.640;10.050;2023-12-14T01:41:57;2.14;;;2.13;;
23573;SDS011;11965;53.640;10.050;2023-12-14T01:44:23;2.13;;;2.12;;
23573;SDS011;11965;53.640;10.050;2023-12-14T01:46:52;2.27;;;2.25;;
23573;SDS011;11965;53.640;10.050;2023-12-14T01:49:19;2.07;;;2.06;;
23573;SDS011;11965;53.640;10.050;2023-12-14T01:51:46;2.31;;;2.28;;
23573;SDS011;11965;53.640;10.050;2023-12-14T01:54:13;2.26;;;2.19;;
23573;SDS011;11965;53.640;10.050;2023-12-14T01:56:40;2.40;;;2.33;;
23573;SDS011;11965;53.640;10.050;2023-12-14T01:59:07;2.39;;;2.35;;
23573;SDS011;11965;53.640;10.050;2023-12-14T02:01:36;2.31;;;2.27;;
23573;SDS011;11965;53.640;10.050;2023-12-14T02:04:09;2.29;;;2.25;;
23573;SDS011;11965;53.640;10.050;2023-12-14T02:06:37;2.02;;;1.98;;
23573;SDS011;11965;53.640;10.050;2023-12-14T02:09:05;2.35;;;2.29;;
23573;SDS011;11965;53.640;10.050;2023-12-14T02:11:32;2.21;;;2.15;;
23573;SDS011;11965;53.640;10.050;2023-12-14T02:14:02;2.45;;;2.37;;
23573;SDS011;11965;53.640;10.050;2023-12-14T02:16:30;2.40;;;2.34;;
23573;SDS011;11965;53.640;10.050;2023-12-14T02:18:58;2.56;;;2.50;;
23573;SDS011;11965;53.640;10.050;2023-12-14T02:21:26;2.57;;;2.52;;
23573;SDS011;11965;53.640;10.050;2023-12-14T02:23:54;2.42;;;2.38;;
23573;SDS011;11965;53.640;10.050;2023-12-14T02:26:21;2.36;;;2.32;;
23573;SDS011;11965;53.640;10.050;2023-12-14T02:28:48;2.68;;;2.63;;
23573;SDS011;11965;53.640;10.050;2023-12-14T02:31:15;2.88;;;2.82;;
23573;SDS011;11965;53.640;10.050;2023-12-14T02:33:42;2.67;;;2.62;;
23573;SDS011;11965;53.640;10.050;2023-12-14T02:36:09;2.64;;;2.60;;
23573;SDS011;11965;53.640;10.050;2023-12-14T02:38:36;2.81;;;2.78;;
23573;SDS011;11965;53.640;10.050;2023-12-14T02:41:04;2.70;;;2.66;;
23573;SDS011;11965;53.640;10.050;2023-12-14T02:43:31;3.00;;;2.95;;
23573;SDS011;11965;53.640;10.050;2023-12-14T02:45:58;2.83;;;2.80;;
23573;SDS011;11965;53.640;10.050;2023-12-14T02:48:27;2.89;;;2.88;;
23573;SDS011;11965;53.640;10.050;2023-12-14T02:50:55;2.66;;;2.64;;
23573;SDS011;11965;53.640;10.050;2023-12-14T02:53:22;2.66;;;2.64;;
23573;SDS011;11965;53.640;10.050;2023-12-14T02:55:48;2.98;;;2.95;;
23573;SDS011;11965;53.640;10.050;2023-12-14T02:58:18;2.77;;;2.75;;
23573;SDS011;11965;53.640;10.050;2023-12-14T03:00:45;2.44;;;2.42;;
23573;SDS011;11965;53.640;10.050;2023-12-14T03:03:12;2.71;;;2.71;;
23573;SDS011;11965;53.640;10.050;2023-12-14T03:05:38;2.74;;;2.73;;
23573;SDS011;11965;53.640;10.050;2023-12-14T03:08:05;2.73;;;2.73;;
23573;SDS011;11965;53.640;10.050;2023-12-14T03:10:32;2.73;;;2.73;;
23573;SDS011;11965;53.640;10.050;2023-12-14T03:12:58;2.88;;;2.87;;
23573;SDS011;11965;53.640;10.050;2023-12-14T03:15:27;2.57;;;2.57;;
23573;SDS011;11965;53.640;10.050;2023-12-14T03:17:54;2.71;;;2.70;;
23573;SDS011;11965;53.640;10.050;2023-12-14T03:20:20;2.71;;;2.70;;
23573;SDS011;11965;53.640;10.050;2023-12-14T03:22:48;2.79;;;2.79;;
23573;SDS011;11965;53.640;10.050;2023-12-14T03:25:15;2.38;;;2.36;;
23573;SDS011;11965;53.640;10.050;2023-12-14T03:27:41;2.42;;;2.40;;
23573;SDS011;11965;53.640;10.050;2023-12-14T03:30:09;2.49;;;2.48;;
23573;SDS011;11965;53.640;10.050;2023-12-14T03:32:38;2.79;;;2.78;;
23573;SDS011;11965;53.640;10.050;2023-12-14T03:35:05;2.66;;;2.64;;
23573;SDS011;11965;53.640;10.050;2023-12-14T03:37:33;2.80;;;2.78;;
23573;SDS011;11965;53.640;10.050;2023-12-14T03:40:00;2.71;;;2.71;;
23573;SDS011;11965;53.640;10.050;2023-12-14T03:42:27;2.59;;;2.59;;
23573;SDS011;11965;53.640;10.050;2023-12-14T03:44:54;2.38;;;2.37;;
23573;SDS011;11965;53.640;10.050;2023-12-14T03:47:21;2.49;;;2.49;;
23573;SDS011;11965;53.640;10.050;2023-12-14T03:49:49;2.57;;;2.56;;
23573;SDS011;11965;53.640;10.050;2023-12-14T03:52:16;2.70;;;2.70;;
23573;SDS011;11965;53.640;10.050;2023-12-14T03:54:43;3.17;;;3.17;;
23573;SDS011;11965;53.640;10.050;2023-12-14T03:57:10;2.84;;;2.84;;
23573;SDS011;11965;53.640;10.050;2023-12-14T03:59:38;2.80;;;2.80;;
23573;SDS011;11965;53.640;10.050;2023-12-14T04:02:06;2.73;;;2.72;;
23573;SDS011;11965;53.640;10.050;2023-12-14T04:04:33;2.95;;;2.94;;
23573;SDS011;11965;53.640;10.050;2023-12-14T04:07:01;2.95;;;2.92;;
23573;SDS011;11965;53.640;10.050;2023-12-14T04:09:28;2.93;;;2.89;;
23573;SDS011;11965;53.640;10.050;2023-12-14T04:11:55;3.05;;;3.02;;
23573;SDS011;11965;53.640;10.050;2023-12-14T04:14:21;3.33;;;3.30;;
23573;SDS011;11965;53.640;10.050;2023-12-14T04:16:48;3.06;;;3.04;;
23573;SDS011;11965;53.640;10.050;2023-12-14T04:19:15;3.03;;;3.02;;
23573;SDS011;11965;53.640;10.050;2023-12-14T04:21:42;3.02;;;3.02;;
23573;SDS011;11965;53.640;10.050;2023-12-14T04:24:10;3.06;;;3.06;;
23573;SDS011;11965;53.640;10.050;2023-12-14T04:26:38;3.04;;;3.03;;
23573;SDS011;11965;53.640;10.050;2023-12-14T04:29:05;3.14;;;3.13;;
23573;SDS011;11965;53.640;10.050;2023-12-14T04:31:33;3.54;;;3.52;;
23573;SDS011;11965;53.640;10.050;2023-12-14T04:34:01;3.70;;;3.69;;
23573;SDS011;11965;53.640;10.050;2023-12-14T04:36:27;3.82;;;3.81;;
23573;SDS011;11965;53.640;10.050;2023-12-14T04:38:54;3.72;;;3.70;;
23573;SDS011;11965;53.640;10.050;2023-12-14T04:41:23;3.78;;;3.75;;
23573;SDS011;11965;53.640;10.050;2023-12-14T04:43:49;4.06;;;4.03;;
23573;SDS011;11965;53.640;10.050;2023-12-14T04:46:16;4.05;;;4.03;;
23573;SDS011;11965;53.640;10.050;2023-12-14T04:48:43;4.25;;;4.24;;
23573;SDS011;11965;53.640;10.050;2023-12-14T04:51:13;4.23;;;4.21;;
23573;SDS011;11965;53.640;10.050;2023-12-14T04:53:40;4.05;;;4.02;;
23573;SDS011;11965;53.640;10.050;2023-12-14T04:56:09;4.23;;;4.23;;
23573;SDS011;11965;53.640;10.050;2023-12-14T04:58:39;5.15;;;5.15;;
23573;SDS011;11965;53.640;10.050;2023-12-14T05:01:07;4.79;;;4.78;;
23573;SDS011;11965;53.640;10.050;2023-12-14T05:03:35;4.76;;;4.76;;
23573;SDS011;11965;53.640;10.050;2023-12-14T05:06:03;4.92;;;4.91;;
23573;SDS011;11965;53.640;10.050;2023-12-14T05:08:30;4.59;;;4.58;;
23573;SDS011;11965;53.640;10.050;2023-12-14T05:10:57;4.39;;;4.39;;
23573;SDS011;11965;53.640;10.050;2023-12-14T05:13:24;4.24;;;4.24;;
23573;SDS011;11965;53.640;10.050;2023-12-14T05:15:52;4.46;;;4.46;;
23573;SDS011;11965;53.640;10.050;2023-12-14T05:18:19;4.70;;;4.70;;
23573;SDS011;11965;53.640;10.050;2023-12-14T05:20:46;4.67;;;4.66;;
23573;SDS011;11965;53.640;10.050;2023-12-14T05:23:13;4.80;;;4.74;;
23573;SDS011;11965;53.640;10.050;2023-12-14T05:25:40;4.58;;;4.57;;
23573;SDS011;11965;53.640;10.050;2023-12-14T05:28:07;4.91;;;4.89;;
23573;SDS011;11965;53.640;10.050;2023-12-14T05:30:34;4.80;;;4.80;;
23573;SDS011;11965;53.640;10.050;2023-12-14T05:33:03;4.94;;;4.92;;
23573;SDS011;11965;53.640;10.050;2023-12-14T05:35:29;5.12;;;5.08;;
23573;SDS011;11965;53.640;10.050;2023-12-14T05:37:57;5.17;;;5.13;;
23573;SDS011;11965;53.640;10.050;2023-12-14T05:40:22;5.44;;;5.40;;
23573;SDS011;11965;53.640;10.050;2023-12-14T05:42:49;6.12;;;6.05;;
23573;SDS011;11965;53.640;10.050;2023-12-14T05:45:16;6.06;;;5.98;;
23573;SDS011;11965;53.640;10.050;2023-12-14T05:47:44;5.69;;;5.64;;
23573;SDS011;11965;53.640;10.050;2023-12-14T05:50:12;6.31;;;6.22;;
23573;SDS011;11965;53.640;10.050;2023-12-14T05:52:39;6.68;;;6.49;;
23573;SDS011;11965;53.640;10.050;2023-12-14T05:55:07;6.34;;;6.23;;
23573;SDS011;11965;53.640;10.050;2023-12-14T05:57:35;6.61;;;6.52;;
23573;SDS011;11965;53.640;10.050;2023-12-14T06:00:03;6.60;;;6.55;;
23573;SDS011;11965;53.640;10.050;2023-12-14T06:02:31;6.93;;;6.86;;
23573;SDS011;11965;53.640;10.050;2023-12-14T06:04:58;6.63;;;6.49;;
23573;SDS011;11965;53.640;10.050;2023-12-14T06:07:26;6.65;;;6.53;;
23573;SDS011;11965;53.640;10.050;2023-12-14T06:09:53;6.69;;;6.60;;
23573;SDS011;11965;53.640;10.050;2023-12-14T06:12:20;6.58;;;6.46;;
23573;SDS011;11965;53.640;10.050;2023-12-14T06:14:47;6.91;;;6.74;;
23573;SDS011;11965;53.640;10.050;2023-12-14T06:17:14;6.41;;;6.40;;
23573;SDS011;11965;53.640;10.050;2023-12-14T06:19:40;6.68;;;6.62;;
23573;SDS011;11965;53.640;10.050;2023-12-14T06:22:07;6.37;;;6.37;;
23573;SDS011;11965;53.640;10.050;2023-12-14T06:24:36;6.52;;;6.42;;
23573;SDS011;11965;53.640;10.050;2023-12-14T06:27:03;6.71;;;6.62;;
23573;SDS011;11965;53.640;10.050;2023-12-14T06:29:30;6.25;;;6.23;;
23573;SDS011;11965;53.640;10.050;2023-12-14T06:31:57;6.35;;;6.30;;
23573;SDS011;11965;53.640;10.050;2023-12-14T06:34:24;6.78;;;6.76;;
23573;SDS011;11965;53.640;10.050;2023-12-14T06:36:51;6.69;;;6.59;;
23573;SDS011;11965;53.640;10.050;2023-12-14T06:39:18;6.89;;;6.84;;
23573;SDS011;11965;53.640;10.050;2023-12-14T06:41:46;6.80;;;6.80;;
23573;SDS011;11965;53.640;10.050;2023-12-14T06:44:13;6.94;;;6.90;;
23573;SDS011;11965;53.640;10.050;2023-12-14T06:46:40;7.11;;;7.06;;
23573;SDS011;11965;53.640;10.050;2023-12-14T06:49:07;7.37;;;7.37;;
23573;SDS011;11965;53.640;10.050;2023-12-14T06:51:33;6.48;;;6.48;;
23573;SDS011;11965;53.640;10.050;2023-12-14T06:54:00;6.99;;;6.99;;
23573;SDS011;11965;53.640;10.050;2023-12-14T06:56:27;6.89;;;6.89;;
23573;SDS011;11965;53.640;10.050;2023-12-14T06:58:56;6.88;;;6.85;;
23573;SDS011;11965;53.640;10.050;2023-12-14T07:01:22;7.08;;;7.07;;
23573;SDS011;11965;53.640;10.050;2023-12-14T07:03:49;6.83;;;6.77;;
23573;SDS011;11965;53.640;10.050;2023-12-14T07:06:17;7.30;;;7.23;;
23573;SDS011;11965;53.640;10.050;2023-12-14T07:08:46;6.72;;;6.71;;
23573;SDS011;11965;53.640;10.050;2023-12-14T07:11:13;7.06;;;7.05;;
23573;SDS011;11965;53.640;10.050;2023-12-14T07:13:40;7.06;;;6.94;;
23573;SDS011;11965;53.640;10.050;2023-12-14T07:16:09;7.34;;;7.24;;
23573;SDS011;11965;53.640;10.050;2023-12-14T07:18:37;7.21;;;7.21;;
23573;SDS011;11965;53.640;10.050;2023-12-14T07:21:05;7.17;;;7.15;;
23573;SDS011;11965;53.640;10.050;2023-12-14T07:23:33;6.83;;;6.83;;
23573;SDS011;11965;53.640;10.050;2023-12-14T07:26:01;6.96;;;6.95;;
23573;SDS011;11965;53.640;10.050;2023-12-14T07:28:28;7.39;;;7.39;;
23573;SDS011;11965;53.640;10.050;2023-12-14T07:30:56;7.53;;;7.50;;
23573;SDS011;11965;53.640;10.050;2023-12-14T07:33:24;7.91;;;7.79;;
23573;SDS011;11965;53.640;10.050;2023-12-14T07:35:51;7.92;;;7.85;;
23573;SDS011;11965;53.640;10.050;2023-12-14T07:38:17;7.50;;;7.50;;
23573;SDS011;11965;53.640;10.050;2023-12-14T07:40:44;7.40;;;7.40;;
23573;SDS011;11965;53.640;10.050;2023-12-14T07:43:12;7.73;;;7.62;;
23573;SDS011;11965;53.640;10.050;2023-12-14T07:45:39;8.00;;;7.88;;
23573;SDS011;11965;53.640;10.050;2023-12-14T07:48:05;7.27;;;7.27;;
23573;SDS011;11965;53.640;10.050;2023-12-14T07:50:34;7.53;;;7.52;;
23573;SDS011;11965;53.640;10.050;2023-12-14T07:53:01;7.96;;;7.93;;
23573;SDS011;11965;53.640;10.050;2023-12-14T07:55:28;8.18;;;8.17;;
23573;SDS011;11965;53.640;10.050;2023-12-14T07:57:55;8.50;;;8.36;;
23573;SDS011;11965;53.640;10.050;2023-12-14T08:00:22;8.70;;;8.59;;
23573;SDS011;11965;53.640;10.050;2023-12-14T08:02:49;8.25;;;8.24;;
23573;SDS011;11965;53.640;10.050;2023-12-14T08:05:16;8.11;;;8.11;;
23573;SDS011;11965;53.640;10.050;2023-12-14T08:07:44;8.19;;;8.17;;
23573;SDS011;11965;53.640;10.050;2023-12-14T08:10:11;8.91;;;8.78;;
23573;SDS011;11965;53.640;10.050;2023-12-14T08:12:38;7.62;;;7.54;;
23573;SDS011;11965;53.640;10.050;2023-12-14T08:15:05;7.90;;;7.78;;
23573;SDS011;11965;53.640;10.050;2023-12-14T08:17:33;8.78;;;8.71;;
23573;SDS011;11965;53.640;10.050;2023-12-14T08:20:00;8.21;;;8.21;;
23573;SDS011;11965;53.640;10.050;2023-12-14T08:22:27;8.51;;;8.51;;
23573;SDS011;11965;53.640;10.050;2023-12-14T08:24:55;8.79;;;8.79;;
23573;SDS011;11965;53.640;10.050;2023-12-14T08:27:22;8.82;;;8.81;;
23573;SDS011;11965;53.640;10.050;2023-12-14T08:29:49;7.32;;;7.32;;
23573;SDS011;11965;53.640;10.050;2023-12-14T08:32:16;7.42;;;7.34;;
23573;SDS011;11965;53.640;10.050;2023-12-14T08:34:43;6.81;;;6.76;;
23573;SDS011;11965;53.640;10.050;2023-12-14T08:37:10;7.82;;;7.80;;
23573;SDS011;11965;53.640;10.050;2023-12-14T08:39:37;7.72;;;7.72;;
23573;SDS011;11965;53.640;10.050;2023-12-14T08:42:05;6.77;;;6.77;;
23573;SDS011;11965;53.640;10.050;2023-12-14T08:44:32;6.58;;;6.54;;
23573;SDS011;11965;53.640;10.050;2023-12-14T08:46:59;6.96;;;6.89;;
23573;SDS011;11965;53.640;10.050;2023-12-14T08:49:28;6.88;;;6.85;;
23573;SDS011;11965;53.640;10.050;2023-12-14T08:51:55;7.05;;;7.05;;
23573;SDS011;11965;53.640;10.050;2023-12-14T08:54:22;7.37;;;7.37;;
23573;SDS011;11965;53.640;10.050;2023-12-14T08:56:50;7.65;;;7.65;;
23573;SDS011;11965;53.640;10.050;2023-12-14T08:59:18;7.98;;;7.98;;
23573;SDS011;11965;53.640;10.050;2023-12-14T09:01:45;7.26;;;7.24;;
23573;SDS011;11965;53.640;10.050;2023-12-14T09:04:12;7.27;;;7.23;;
23573;SDS011;11965;53.640;10.050;2023-12-14T09:06:39;7.94;;;7.94;;
23573;SDS011;11965;53.640;10.050;2023-12-14T09:09:10;7.53;;;7.52;;
23573;SDS011;11965;53.640;10.050;2023-12-14T09:11:38;8.87;;;8.83;;
23573;SDS011;11965;53.640;10.050;2023-12-14T09:14:05;9.04;;;9.01;;
23573;SDS011;11965;53.640;10.050;2023-12-14T09:16:34;8.60;;;8.48;;
23573;SDS011;11965;53.640;10.050;2023-12-14T09:19:01;8.42;;;8.33;;
23573;SDS011;11965;53.640;10.050;2023-12-14T09:21:28;8.14;;;8.01;;
23573;SDS011;11965;53.640;10.050;2023-12-14T09:23:55;8.37;;;8.35;;
23573;SDS011;11965;53.640;10.050;2023-12-14T09:26:22;8.44;;;8.44;;
23573;SDS011;11965;53.640;10.050;2023-12-14T09:28:51;8.76;;;8.63;;
23573;SDS011;11965;53.640;10.050;2023-12-14T09:31:17;9.63;;;9.46;;
23573;SDS011;11965;53.640;10.050;2023-12-14T09:33:46;9.25;;;9.16;;
23573;SDS011;11965;53.640;10.050;2023-12-14T09:36:13;8.91;;;8.77;;
23573;SDS011;11965;53.640;10.050;2023-12-14T09:38:39;8.67;;;8.49;;
23573;SDS011;11965;53.640;10.050;2023-12-14T09:41:08;8.31;;;8.30;;
23573;SDS011;11965;53.640;10.050;2023-12-14T09:43:35;8.04;;;8.04;;
23573;SDS011;11965;53.640;10.050;2023-12-14T09:46:02;8.23;;;8.21;;
23573;SDS011;11965;53.640;10.050;2023-12-14T09:48:30;8.03;;;7.96;;
23573;SDS011;11965;53.640;10.050;2023-12-14T09:51:00;8.53;;;8.51;;
23573;SDS011;11965;53.640;10.050;2023-12-14T09:53:27;8.22;;;8.21;;
23573;SDS011;11965;53.640;10.050;2023-12-14T09:55:53;8.45;;;8.43;;
23573;SDS011;11965;53.640;10.050;2023-12-14T09:58:20;7.90;;;7.75;;
23573;SDS011;11965;53.640;10.050;2023-12-14T10:00:47;7.59;;;7.38;;
23573;SDS011;11965;53.640;10.050;2023-12-14T10:03:21;8.00;;;7.79;;
23573;SDS011;11965;53.640;10.050;2023-12-14T10:05:51;7.49;;;7.46;;
23573;SDS011;11965;53.640;10.050;2023-12-14T10:08:20;7.42;;;7.42;;
23573;SDS011;11965;53.640;10.050;2023-12-14T10:10:48;7.58;;;7.55;;
23573;SDS011;11965;53.640;10.050;2023-12-14T10:13:18;8.03;;;7.91;;
23573;SDS011;11965;53.640;10.050;2023-12-14T10:15:45;7.78;;;7.78;;
23573;SDS011;11965;53.640;10.050;2023-12-14T10:18:19;7.56;;;7.55;;
23573;SDS011;11965;53.640;10.050;2023-12-14T10:20:49;7.30;;;7.30;;
23573;SDS011;11965;53.640;10.050;2023-12-14T10:23:16;7.34;;;7.31;;
23573;SDS011;11965;53.640;10.050;2023-12-14T10:25:44;7.25;;;7.24;;
23573;SDS011;11965;53.640;10.050;2023-12-14T10:28:12;8.01;;;7.99;;
23573;SDS011;11965;53.640;10.050;2023-12-14T10:30:39;7.02;;;7.02;;
23573;SDS011;11965;53.640;10.050;2023-12-14T10:33:07;6.81;;;6.81;;
23573;SDS011;11965;53.640;10.050;2023-12-14T10:35:34;6.79;;;6.78;;
23573;SDS011;11965;53.640;10.050;2023-12-14T10:38:01;6.80;;;6.76;;
23573;SDS011;11965;53.640;10.050;2023-12-14T10:40:30;6.65;;;6.65;;
23573;SDS011;11965;53.640;10.050;2023-12-14T10:43:00;7.05;;;7.04;;
23573;SDS011;11965;53.640;10.050;2023-12-14T10:45:30;6.82;;;6.68;;
23573;SDS011;11965;53.640;10.050;2023-12-14T10:47:59;6.89;;;6.89;;
23573;SDS011;11965;53.640;10.050;2023-12-14T10:50:29;6.90;;;6.90;;
23573;SDS011;11965;53.640;10.050;2023-12-14T10:52:57;7.23;;;7.14;;
23573;SDS011;11965;53.640;10.050;2023-12-14T10:55:25;7.69;;;7.68;;
23573;SDS011;11965;53.640;10.050;2023-12-14T10:57:57;8.09;;;8.06;;
23573;SDS011;11965;53.640;10.050;2023-12-14T11:00:27;7.55;;;7.49;;
23573;SDS011;11965;53.640;10.050;2023-12-14T11:02:54;7.63;;;7.63;;
23573;SDS011;11965;53.640;10.050;2023-12-14T11:05:22;7.45;;;7.45;;
23573;SDS011;11965;53.640;10.050;2023-12-14T11:07:55;7.47;;;7.47;;
23573;SDS011;11965;53.640;10.050;2023-12-14T11:10:36;8.83;;;8.83;;
23573;SDS011;11965;53.640;10.050;2023-12-14T11:13:07;8.24;;;8.22;;
23573;SDS011;11965;53.640;10.050;2023-12-14T11:15:37;8.14;;;8.06;;
23573;SDS011;11965;53.640;10.050;2023-12-14T11:18:21;7.96;;;7.94;;
23573;SDS011;11965;53.640;10.050;2023-12-14T11:20:50;7.70;;;7.68;;
23573;SDS011;11965;53.640;10.050;2023-12-14T11:23:28;7.71;;;7.71;;
23573;SDS011;11965;53.640;10.050;2023-12-14T11:25:57;7.78;;;7.78;;
23573;SDS011;11965;53.640;10.050;2023-12-14T11:28:27;7.95;;;7.91;;
23573;SDS011;11965;53.640;10.050;2023-12-14T11:30:54;7.82;;;7.82;;
23573;SDS011;11965;53.640;10.050;2023-12-14T11:33:21;7.77;;;7.77;;
23573;SDS011;11965;53.640;10.050;2023-12-14T11:35:49;8.02;;;8.02;;
23573;SDS011;11965;53.640;10.050;2023-12-14T11:38:18;8.34;;;8.34;;
23573;SDS011;11965;53.640;10.050;2023-12-14T11:40:46;8.55;;;8.55;;
23573;SDS011;11965;53.640;10.050;2023-12-14T11:43:14;9.08;;;9.08;;
23573;SDS011;11965;53.640;10.050;2023-12-14T11:45:43;8.78;;;8.78;;
23573;SDS011;11965;53.640;10.050;2023-12-14T11:48:10;8.49;;;8.49;;
23573;SDS011;11965;53.640;10.050;2023-12-14T11:50:39;8.97;;;8.97;;
23573;SDS011;11965;53.640;10.050;2023-12-14T11:53:07;9.06;;;9.06;;
23573;SDS011;11965;53.640;10.050;2023-12-14T11:55:36;8.94;;;8.94;;
23573;SDS011;11965;53.640;10.050;2023-12-14T11:58:04;8.97;;;8.97;;
23573;SDS011;11965;53.640;10.050;2023-12-14T12:00:31;8.66;;;8.66;;
23573;SDS011;11965;53.640;10.050;2023-12-14T12:03:09;8.66;;;8.66;;
23573;SDS011;11965;53.640;10.050;2023-12-14T12:05:37;8.99;;;8.99;;
23573;SDS011;11965;53.640;10.050;2023-12-14T12:08:06;9.15;;;9.12;;
23573;SDS011;11965;53.640;10.050;2023-12-14T12:10:33;9.21;;;9.19;;
23573;SDS011;11965;53.640;10.050;2023-12-14T12:13:01;8.81;;;8.81;;
23573;SDS011;11965;53.640;10.050;2023-12-14T12:15:30;9.26;;;9.21;;
23573;SDS011;11965;53.640;10.050;2023-12-14T12:17:58;9.25;;;9.25;;
23573;SDS011;11965;53.640;10.050;2023-12-14T12:20:27;8.87;;;8.86;;
23573;SDS011;11965;53.640;10.050;2023-12-14T12:22:53;9.44;;;9.28;;
23573;SDS011;11965;53.640;10.050;2023-12-14T12:25:20;10.69;;;10.44;;
23573;SDS011;11965;53.640;10.050;2023-12-14T12:27:48;12.17;;;11.88;;
23573;SDS011;11965;53.640;10.050;2023-12-14T12:30:15;11.37;;;11.31;;
23573;SDS011;11965;53.640;10.050;2023-12-14T12:32:42;9.95;;;9.95;;
23573;SDS011;11965;53.640;10.050;2023-12-14T12:35:09;10.00;;;9.91;;
23573;SDS011;11965;53.640;10.050;2023-12-14T12:37:37;9.02;;;9.02;;
23573;SDS011;11965;53.640;10.050;2023-12-14T12:40:05;8.96;;;8.88;;
23573;SDS011;11965;53.640;10.050;2023-12-14T12:42:33;9.20;;;9.12;;
23573;SDS011;11965;53.640;10.050;2023-12-14T12:45:00;9.05;;;8.97;;
23573;SDS011;11965;53.640;10.050;2023-12-14T12:47:27;8.94;;;8.91;;
23573;SDS011;11965;53.640;10.050;2023-12-14T12:49:54;8.81;;;8.78;;
23573;SDS011;11965;53.640;10.050;2023-12-14T12:52:21;8.80;;;8.74;;
23573;SDS011;11965;53.640;10.050;2023-12-14T12:54:49;9.03;;;8.82;;
23573;SDS011;11965;53.640;10.050;2023-12-14T12:57:16;8.93;;;8.89;;
23573;SDS011;11965;53.640;10.050;2023-12-14T12:59:43;8.55;;;8.51;;
23573;SDS011;11965;53.640;10.050;2023-12-14T13:02:10;9.10;;;9.03;;
23573;SDS011;11965;53.640;10.050;2023-12-14T13:04:37;8.93;;;8.93;;
23573;SDS011;11965;53.640;10.050;2023-12-14T13:07:04;8.25;;;8.25;;
23573;SDS011;11965;53.640;10.050;2023-12-14T13:09:31;9.00;;;8.97;;
23573;SDS011;11965;53.640;10.050;2023-12-14T13:11:59;8.94;;;8.89;;
23573;SDS011;11965;53.640;10.050;2023-12-14T13:14:26;8.64;;;8.58;;
23573;SDS011;11965;53.640;10.050;2023-12-14T13:16:53;8.43;;;8.34;;
23573;SDS011;11965;53.640;10.050;2023-12-14T13:19:20;8.61;;;8.59;;
23573;SDS011;11965;53.640;10.050;2023-12-14T13:21:48;9.02;;;9.01;;
23573;SDS011;11965;53.640;10.050;2023-12-14T13:24:15;8.47;;;8.45;;
23573;SDS011;11965;53.640;10.050;2023-12-14T13:26:42;8.34;;;8.30;;
23573;SDS011;11965;53.640;10.050;2023-12-14T13:29:10;8.32;;;8.24;;
23573;SDS011;11965;53.640;10.050;2023-12-14T13:31:37;8.49;;;8.45;;
23573;SDS011;11965;53.640;10.050;2023-12-14T13:34:04;8.51;;;8.48;;
23573;SDS011;11965;53.640;10.050;2023-12-14T13:36:31;8.50;;;8.50;;
23573;SDS011;11965;53.640;10.050;2023-12-14T13:38:57;8.23;;;8.23;;
23573;SDS011;11965;53.640;10.050;2023-12-14T13:41:27;8.79;;;8.79;;
23573;SDS011;11965;53.640;10.050;2023-12-14T13:43:59;8.67;;;8.67;;
23573;SDS011;11965;53.640;10.050;2023-12-14T13:46:27;8.37;;;8.37;;
23573;SDS011;11965;53.640;10.050;2023-12-14T13:48:54;8.48;;;8.48;;
23573;SDS011;11965;53.640;10.050;2023-12-14T13:51:21;8.66;;;8.66;;
23573;SDS011;11965;53.640;10.050;2023-12-14T13:53:48;8.70;;;8.62;;
23573;SDS011;11965;53.640;10.050;2023-12-14T13:56:15;8.36;;;8.31;;
23573;SDS011;11965;53.640;10.050;2023-12-14T13:58:42;8.40;;;8.40;;
23573;SDS011;11965;53.640;10.050;2023-12-14T14:01:08;8.67;;;8.67;;
23573;SDS011;11965;53.640;10.050;2023-12-14T14:03:37;8.62;;;8.55;;
23573;SDS011;11965;53.640;10.050;2023-12-14T14:06:04;8.38;;;8.28;;
23573;SDS011;11965;53.640;10.050;2023-12-14T14:08:32;8.52;;;8.48;;
23573;SDS011;11965;53.640;10.050;2023-12-14T14:10:59;8.48;;;8.45;;
23573;SDS011;11965;53.640;10.050;2023-12-14T14:13:26;10.46;;;10.46;;
23573;SDS011;11965;53.640;10.050;2023-12-14T14:15:53;9.13;;;9.13;;
23573;SDS011;11965;53.640;10.050;2023-12-14T14:18:20;8.96;;;8.95;;
23573;SDS011;11965;53.640;10.050;2023-12-14T14:20:48;9.18;;;9.17;;
23573;SDS011;11965;53.640;10.050;2023-12-14T14:23:15;9.10;;;9.09;;
23573;SDS011;11965;53.640;10.050;2023-12-14T14:25:42;8.75;;;8.74;;
23573;SDS011;11965;53.640;10.050;2023-12-14T14:28:10;9.08;;;9.07;;
23573;SDS011;11965;53.640;10.050;2023-12-14T14:30:36;8.77;;;8.77;;
23573;SDS011;11965;53.640;10.050;2023-12-14T14:33:03;8.68;;;8.68;;
23573;SDS011;11965;53.640;10.050;2023-12-14T14:35:31;8.06;;;8.04;;